sensor_id;sensor_type;location;lat;lon;timestamp;P1;durP1;ratioP1;P2;durP2;ratioP2
11496;SDS011;5805;51.542;7.230;2022-11-15T00:00:26;6.63;;;5.13;;
11496;SDS011;5805;51.542;7.230;2022-11-15T00:02:51;7.30;;;4.55;;
11496;SDS011;5805;51.542;7.230;2022-11-15T00:05:17;5.45;;;4.75;;
11496;SDS011;5805;51.542;7.230;2022-11-15T00:07:43;7.50;;;4.78;;
11496;SDS011;5805;51.542;7.230;2022-11-15T00:10:08;11.32;;;5.53;;
11496;SDS011;5805;51.542;7.230;2022-11-15T00:12:35;6.60;;;5.05;;
11496;SDS011;5805;51.542;7.230;2022-11-15T00:15:01;5.57;;;4.75;;
11496;SDS011;5805;51.542;7.230;2022-11-15T00:17:27;5.93;;;4.50;;
11496;SDS011;5805;51.542;7.230;2022-11-15T00:19:52;7.05;;;5.05;;
11496;SDS011;5805;51.542;7.230;2022-11-15T00:22:18;7.72;;;4.45;;
11496;SDS011;5805;51.542;7.230;2022-11-15T00:24:44;6.75;;;4.35;;
11496;SDS011;5805;51.542;7.230;2022-11-15T00:27:09;4.88;;;4.10;;
11496;SDS011;5805;51.542;7.230;2022-11-15T00:29:36;6.28;;;4.50;;
11496;SDS011;5805;51.542;7.230;2022-11-15T00:32:02;6.28;;;4.65;;
11496;SDS011;5805;51.542;7.230;2022-11-15T00:34:28;9.20;;;4.20;;
11496;SDS011;5805;51.542;7.230;2022-11-15T00:36:53;5.18;;;4.40;;
11496;SDS011;5805;51.542;7.230;2022-11-15T00:39:19;6.05;;;4.28;;
11496;SDS011;5805;51.542;7.230;2022-11-15T00:41:45;4.95;;;4.45;;
11496;SDS011;5805;51.542;7.230;2022-11-15T00:44:10;8.55;;;4.20;;
11496;SDS011;5805;51.542;7.230;2022-11-15T00:46:37;6.45;;;4.28;;
11496;SDS011;5805;51.542;7.230;2022-11-15T00:49:03;5.40;;;4.10;;
11496;SDS011;5805;51.542;7.230;2022-11-15T00:51:28;7.93;;;4.32;;
11496;SDS011;5805;51.542;7.230;2022-11-15T00:53:54;6.32;;;4.78;;
11496;SDS011;5805;51.542;7.230;2022-11-15T00:56:20;5.97;;;4.20;;
11496;SDS011;5805;51.542;7.230;2022-11-15T00:58:45;5.50;;;4.30;;
11496;SDS011;5805;51.542;7.230;2022-11-15T01:01:12;7.88;;;4.43;;
11496;SDS011;5805;51.542;7.230;2022-11-15T01:03:40;5.82;;;4.80;;
11496;SDS011;5805;51.542;7.230;2022-11-15T01:06:07;6.00;;;4.45;;
11496;SDS011;5805;51.542;7.230;2022-11-15T01:08:34;6.40;;;4.18;;
11496;SDS011;5805;51.542;7.230;2022-11-15T01:11:00;6.25;;;4.28;;
11496;SDS011;5805;51.542;7.230;2022-11-15T01:13:27;6.25;;;4.88;;
11496;SDS011;5805;51.542;7.230;2022-11-15T01:15:55;8.85;;;4.45;;
11496;SDS011;5805;51.542;7.230;2022-11-15T01:18:20;8.73;;;4.53;;
11496;SDS011;5805;51.542;7.230;2022-11-15T01:20:47;9.50;;;4.25;;
11496;SDS011;5805;51.542;7.230;2022-11-15T01:23:13;6.53;;;4.50;;
11496;SDS011;5805;51.542;7.230;2022-11-15T01:25:39;6.75;;;4.15;;
11496;SDS011;5805;51.542;7.230;2022-11-15T01:28:05;4.53;;;3.95;;
11496;SDS011;5805;51.542;7.230;2022-11-15T01:30:31;4.97;;;3.85;;
11496;SDS011;5805;51.542;7.230;2022-11-15T01:32:56;7.40;;;3.92;;
11496;SDS011;5805;51.542;7.230;2022-11-15T01:35:22;5.97;;;3.92;;
11496;SDS011;5805;51.542;7.230;2022-11-15T01:37:49;8.23;;;4.15;;
11496;SDS011;5805;51.542;7.230;2022-11-15T01:40:15;5.53;;;4.20;;
11496;SDS011;5805;51.542;7.230;2022-11-15T01:42:40;6.28;;;4.28;;
11496;SDS011;5805;51.542;7.230;2022-11-15T01:45:07;6.25;;;3.67;;
11496;SDS011;5805;51.542;7.230;2022-11-15T01:47:39;5.35;;;4.57;;
11496;SDS011;5805;51.542;7.230;2022-11-15T01:50:10;7.28;;;4.50;;
11496;SDS011;5805;51.542;7.230;2022-11-15T01:52:39;10.02;;;4.20;;
11496;SDS011;5805;51.542;7.230;2022-11-15T01:55:07;7.43;;;4.20;;
11496;SDS011;5805;51.542;7.230;2022-11-15T01:57:36;8.38;;;3.92;;
11496;SDS011;5805;51.542;7.230;2022-11-15T02:00:03;9.18;;;4.00;;
11496;SDS011;5805;51.542;7.230;2022-11-15T02:02:30;10.68;;;4.60;;
11496;SDS011;5805;51.542;7.230;2022-11-15T02:04:56;5.72;;;3.78;;
11496;SDS011;5805;51.542;7.230;2022-11-15T02:07:21;5.60;;;3.70;;
11496;SDS011;5805;51.542;7.230;2022-11-15T02:09:47;8.70;;;4.82;;
11496;SDS011;5805;51.542;7.230;2022-11-15T02:12:16;5.43;;;4.10;;
11496;SDS011;5805;51.542;7.230;2022-11-15T02:14:44;7.90;;;4.00;;
11496;SDS011;5805;51.542;7.230;2022-11-15T02:17:19;6.20;;;4.07;;
11496;SDS011;5805;51.542;7.230;2022-11-15T02:20:04;6.15;;;4.10;;
11496;SDS011;5805;51.542;7.230;2022-11-15T02:22:56;6.30;;;3.70;;
11496;SDS011;5805;51.542;7.230;2022-11-15T02:25:39;5.15;;;4.00;;
11496;SDS011;5805;51.542;7.230;2022-11-15T02:28:25;7.38;;;4.13;;
11496;SDS011;5805;51.542;7.230;2022-11-15T02:31:08;6.38;;;3.65;;
11496;SDS011;5805;51.542;7.230;2022-11-15T02:33:41;4.40;;;3.72;;
11496;SDS011;5805;51.542;7.230;2022-11-15T02:36:17;9.93;;;4.10;;
11496;SDS011;5805;51.542;7.230;2022-11-15T02:38:53;6.22;;;3.90;;
11496;SDS011;5805;51.542;7.230;2022-11-15T02:41:25;6.93;;;3.83;;
11496;SDS011;5805;51.542;7.230;2022-11-15T02:43:56;7.18;;;3.95;;
11496;SDS011;5805;51.542;7.230;2022-11-15T02:46:31;5.72;;;3.80;;
11496;SDS011;5805;51.542;7.230;2022-11-15T02:49:01;5.25;;;3.80;;
11496;SDS011;5805;51.542;7.230;2022-11-15T02:51:27;5.35;;;3.58;;
11496;SDS011;5805;51.542;7.230;2022-11-15T02:53:53;6.68;;;3.88;;
11496;SDS011;5805;51.542;7.230;2022-11-15T02:56:19;5.32;;;3.60;;
11496;SDS011;5805;51.542;7.230;2022-11-15T02:58:49;5.80;;;3.60;;
11496;SDS011;5805;51.542;7.230;2022-11-15T03:01:28;4.68;;;3.80;;
11496;SDS011;5805;51.542;7.230;2022-11-15T03:04:06;4.88;;;3.88;;
11496;SDS011;5805;51.542;7.230;2022-11-15T03:06:42;7.25;;;4.07;;
11496;SDS011;5805;51.542;7.230;2022-11-15T03:09:17;8.55;;;3.83;;
11496;SDS011;5805;51.542;7.230;2022-11-15T03:11:55;4.03;;;3.42;;
11496;SDS011;5805;51.542;7.230;2022-11-15T03:14:27;6.85;;;4.13;;
11496;SDS011;5805;51.542;7.230;2022-11-15T03:16:58;8.25;;;4.53;;
11496;SDS011;5805;51.542;7.230;2022-11-15T03:19:29;6.38;;;4.00;;
11496;SDS011;5805;51.542;7.230;2022-11-15T03:22:02;8.35;;;3.65;;
11496;SDS011;5805;51.542;7.230;2022-11-15T03:24:31;5.82;;;4.07;;
11496;SDS011;5805;51.542;7.230;2022-11-15T03:27:02;5.97;;;4.10;;
11496;SDS011;5805;51.542;7.230;2022-11-15T03:29:31;5.30;;;4.38;;
11496;SDS011;5805;51.542;7.230;2022-11-15T03:32:01;5.57;;;4.38;;
11496;SDS011;5805;51.542;7.230;2022-11-15T03:34:31;9.07;;;4.75;;
11496;SDS011;5805;51.542;7.230;2022-11-15T03:37:00;5.20;;;4.10;;
11496;SDS011;5805;51.542;7.230;2022-11-15T03:39:26;7.18;;;4.47;;
11496;SDS011;5805;51.542;7.230;2022-11-15T03:41:56;6.78;;;4.35;;
11496;SDS011;5805;51.542;7.230;2022-11-15T03:44:31;6.05;;;4.65;;
11496;SDS011;5805;51.542;7.230;2022-11-15T03:47:06;9.32;;;4.15;;
11496;SDS011;5805;51.542;7.230;2022-11-15T03:49:35;8.55;;;4.20;;
11496;SDS011;5805;51.542;7.230;2022-11-15T03:52:04;6.72;;;4.25;;
11496;SDS011;5805;51.542;7.230;2022-11-15T03:54:30;7.00;;;4.43;;
11496;SDS011;5805;51.542;7.230;2022-11-15T03:56:56;6.57;;;3.92;;
11496;SDS011;5805;51.542;7.230;2022-11-15T03:59:21;5.32;;;3.88;;
11496;SDS011;5805;51.542;7.230;2022-11-15T04:01:47;5.85;;;4.00;;
11496;SDS011;5805;51.542;7.230;2022-11-15T04:04:14;5.63;;;4.22;;
11496;SDS011;5805;51.542;7.230;2022-11-15T04:06:40;4.68;;;4.22;;
11496;SDS011;5805;51.542;7.230;2022-11-15T04:09:05;6.05;;;4.15;;
11496;SDS011;5805;51.542;7.230;2022-11-15T04:11:31;4.63;;;3.67;;
11496;SDS011;5805;51.542;7.230;2022-11-15T04:13:57;4.25;;;3.85;;
11496;SDS011;5805;51.542;7.230;2022-11-15T04:16:22;6.80;;;4.43;;
11496;SDS011;5805;51.542;7.230;2022-11-15T04:18:48;6.43;;;4.18;;
11496;SDS011;5805;51.542;7.230;2022-11-15T04:21:15;8.55;;;4.32;;
11496;SDS011;5805;51.542;7.230;2022-11-15T04:23:41;5.72;;;4.25;;
11496;SDS011;5805;51.542;7.230;2022-11-15T04:26:07;5.25;;;3.97;;
11496;SDS011;5805;51.542;7.230;2022-11-15T04:28:34;5.75;;;4.20;;
11496;SDS011;5805;51.542;7.230;2022-11-15T04:31:00;4.82;;;4.00;;
11496;SDS011;5805;51.542;7.230;2022-11-15T04:33:25;5.43;;;4.20;;
11496;SDS011;5805;51.542;7.230;2022-11-15T04:35:51;5.88;;;4.25;;
11496;SDS011;5805;51.542;7.230;2022-11-15T04:38:18;5.13;;;4.03;;
11496;SDS011;5805;51.542;7.230;2022-11-15T04:40:44;5.78;;;4.18;;
11496;SDS011;5805;51.542;7.230;2022-11-15T04:43:09;6.65;;;4.03;;
11496;SDS011;5805;51.542;7.230;2022-11-15T04:45:35;4.20;;;3.80;;
11496;SDS011;5805;51.542;7.230;2022-11-15T04:48:00;7.28;;;4.43;;
11496;SDS011;5805;51.542;7.230;2022-11-15T04:50:26;7.18;;;4.32;;
11496;SDS011;5805;51.542;7.230;2022-11-15T04:52:52;5.13;;;4.07;;
11496;SDS011;5805;51.542;7.230;2022-11-15T04:55:20;4.93;;;3.80;;
11496;SDS011;5805;51.542;7.230;2022-11-15T04:57:46;4.47;;;4.00;;
11496;SDS011;5805;51.542;7.230;2022-11-15T05:00:12;8.07;;;4.40;;
11496;SDS011;5805;51.542;7.230;2022-11-15T05:02:39;5.35;;;3.78;;
11496;SDS011;5805;51.542;7.230;2022-11-15T05:05:05;4.70;;;3.97;;
11496;SDS011;5805;51.542;7.230;2022-11-15T05:07:31;4.43;;;3.97;;
11496;SDS011;5805;51.542;7.230;2022-11-15T05:09:57;4.05;;;3.65;;
11496;SDS011;5805;51.542;7.230;2022-11-15T05:12:24;4.97;;;4.38;;
11496;SDS011;5805;51.542;7.230;2022-11-15T05:14:50;6.93;;;4.00;;
11496;SDS011;5805;51.542;7.230;2022-11-15T05:17:15;7.07;;;4.55;;
11496;SDS011;5805;51.542;7.230;2022-11-15T05:19:41;4.80;;;4.10;;
11496;SDS011;5805;51.542;7.230;2022-11-15T05:22:07;5.35;;;4.40;;
11496;SDS011;5805;51.542;7.230;2022-11-15T05:24:32;6.78;;;4.55;;
11496;SDS011;5805;51.542;7.230;2022-11-15T05:26:58;6.68;;;4.07;;
11496;SDS011;5805;51.542;7.230;2022-11-15T05:29:25;4.55;;;4.03;;
11496;SDS011;5805;51.542;7.230;2022-11-15T05:31:50;5.63;;;4.38;;
11496;SDS011;5805;51.542;7.230;2022-11-15T05:34:16;4.70;;;4.10;;
11496;SDS011;5805;51.542;7.230;2022-11-15T05:36:42;4.22;;;3.92;;
11496;SDS011;5805;51.542;7.230;2022-11-15T05:39:09;5.78;;;4.63;;
11496;SDS011;5805;51.542;7.230;2022-11-15T05:41:36;5.60;;;4.68;;
11496;SDS011;5805;51.542;7.230;2022-11-15T05:44:06;5.05;;;4.10;;
11496;SDS011;5805;51.542;7.230;2022-11-15T05:46:35;5.90;;;4.35;;
11496;SDS011;5805;51.542;7.230;2022-11-15T05:49:03;5.80;;;3.95;;
11496;SDS011;5805;51.542;7.230;2022-11-15T05:51:32;4.82;;;4.18;;
11496;SDS011;5805;51.542;7.230;2022-11-15T05:53:58;6.57;;;4.75;;
11496;SDS011;5805;51.542;7.230;2022-11-15T05:56:26;4.28;;;3.78;;
11496;SDS011;5805;51.542;7.230;2022-11-15T05:58:52;4.22;;;3.83;;
11496;SDS011;5805;51.542;7.230;2022-11-15T06:01:20;5.80;;;4.25;;
11496;SDS011;5805;51.542;7.230;2022-11-15T06:03:47;4.82;;;4.20;;
11496;SDS011;5805;51.542;7.230;2022-11-15T06:06:13;6.65;;;4.70;;
11496;SDS011;5805;51.542;7.230;2022-11-15T06:08:38;5.75;;;4.35;;
11496;SDS011;5805;51.542;7.230;2022-11-15T06:11:04;5.00;;;4.28;;
11496;SDS011;5805;51.542;7.230;2022-11-15T06:13:30;5.78;;;4.63;;
11496;SDS011;5805;51.542;7.230;2022-11-15T06:15:56;4.78;;;4.25;;
11496;SDS011;5805;51.542;7.230;2022-11-15T06:18:22;5.28;;;4.57;;
11496;SDS011;5805;51.542;7.230;2022-11-15T06:20:49;5.15;;;4.65;;
11496;SDS011;5805;51.542;7.230;2022-11-15T06:23:14;6.93;;;4.07;;
11496;SDS011;5805;51.542;7.230;2022-11-15T06:25:40;4.40;;;4.00;;
11496;SDS011;5805;51.542;7.230;2022-11-15T06:28:06;5.95;;;4.10;;
11496;SDS011;5805;51.542;7.230;2022-11-15T06:30:32;6.70;;;3.88;;
11496;SDS011;5805;51.542;7.230;2022-11-15T06:32:58;4.65;;;4.25;;
11496;SDS011;5805;51.542;7.230;2022-11-15T06:35:25;5.15;;;4.03;;
11496;SDS011;5805;51.542;7.230;2022-11-15T06:37:52;5.25;;;4.18;;
11496;SDS011;5805;51.542;7.230;2022-11-15T06:40:17;4.40;;;4.00;;
11496;SDS011;5805;51.542;7.230;2022-11-15T06:42:43;5.07;;;3.90;;
11496;SDS011;5805;51.542;7.230;2022-11-15T06:45:09;4.18;;;3.78;;
11496;SDS011;5805;51.542;7.230;2022-11-15T06:47:35;4.75;;;3.58;;
11496;SDS011;5805;51.542;7.230;2022-11-15T06:50:00;5.85;;;3.55;;
11496;SDS011;5805;51.542;7.230;2022-11-15T06:52:26;6.35;;;3.50;;
11496;SDS011;5805;51.542;7.230;2022-11-15T06:54:53;3.60;;;2.83;;
11496;SDS011;5805;51.542;7.230;2022-11-15T06:57:19;4.85;;;3.30;;
11496;SDS011;5805;51.542;7.230;2022-11-15T06:59:44;5.05;;;3.33;;
11496;SDS011;5805;51.542;7.230;2022-11-15T07:02:11;6.03;;;3.10;;
11496;SDS011;5805;51.542;7.230;2022-11-15T07:04:37;4.78;;;2.78;;
11496;SDS011;5805;51.542;7.230;2022-11-15T07:07:03;2.63;;;2.42;;
11496;SDS011;5805;51.542;7.230;2022-11-15T07:09:29;3.78;;;2.50;;
11496;SDS011;5805;51.542;7.230;2022-11-15T07:11:56;2.92;;;2.38;;
11496;SDS011;5805;51.542;7.230;2022-11-15T07:14:21;2.50;;;2.30;;
11496;SDS011;5805;51.542;7.230;2022-11-15T07:16:47;2.42;;;2.20;;
11496;SDS011;5805;51.542;7.230;2022-11-15T07:19:13;2.45;;;2.13;;
11496;SDS011;5805;51.542;7.230;2022-11-15T07:21:38;4.22;;;2.45;;
11496;SDS011;5805;51.542;7.230;2022-11-15T07:24:04;3.10;;;2.08;;
11496;SDS011;5805;51.542;7.230;2022-11-15T07:26:30;3.55;;;2.20;;
11496;SDS011;5805;51.542;7.230;2022-11-15T07:28:57;2.00;;;1.83;;
11496;SDS011;5805;51.542;7.230;2022-11-15T07:31:23;2.90;;;2.10;;
11496;SDS011;5805;51.542;7.230;2022-11-15T07:33:48;2.88;;;2.20;;
11496;SDS011;5805;51.542;7.230;2022-11-15T07:36:14;2.15;;;1.95;;
11496;SDS011;5805;51.542;7.230;2022-11-15T07:38:40;1.80;;;1.70;;
11496;SDS011;5805;51.542;7.230;2022-11-15T07:41:05;2.33;;;1.77;;
11496;SDS011;5805;51.542;7.230;2022-11-15T07:43:31;2.08;;;1.70;;
11496;SDS011;5805;51.542;7.230;2022-11-15T07:45:58;3.03;;;1.85;;
11496;SDS011;5805;51.542;7.230;2022-11-15T07:48:29;2.50;;;1.67;;
11496;SDS011;5805;51.542;7.230;2022-11-15T07:50:54;1.75;;;1.55;;
11496;SDS011;5805;51.542;7.230;2022-11-15T07:53:20;5.00;;;1.58;;
11496;SDS011;5805;51.542;7.230;2022-11-15T07:55:46;2.35;;;1.70;;
11496;SDS011;5805;51.542;7.230;2022-11-15T07:58:11;2.25;;;1.50;;
11496;SDS011;5805;51.542;7.230;2022-11-15T08:00:38;2.95;;;1.67;;
11496;SDS011;5805;51.542;7.230;2022-11-15T08:03:06;1.95;;;1.70;;
11496;SDS011;5805;51.542;7.230;2022-11-15T08:05:33;2.70;;;1.58;;
11496;SDS011;5805;51.542;7.230;2022-11-15T08:07:59;2.60;;;1.48;;
11496;SDS011;5805;51.542;7.230;2022-11-15T08:10:25;3.28;;;1.92;;
11496;SDS011;5805;51.542;7.230;2022-11-15T08:12:56;2.00;;;1.77;;
11496;SDS011;5805;51.542;7.230;2022-11-15T08:15:22;2.45;;;1.48;;
11496;SDS011;5805;51.542;7.230;2022-11-15T08:17:52;2.15;;;1.45;;
11496;SDS011;5805;51.542;7.230;2022-11-15T08:20:20;2.95;;;1.58;;
11496;SDS011;5805;51.542;7.230;2022-11-15T08:22:46;2.85;;;2.20;;
11496;SDS011;5805;51.542;7.230;2022-11-15T08:25:11;2.83;;;1.67;;
11496;SDS011;5805;51.542;7.230;2022-11-15T08:27:37;2.60;;;1.65;;
11496;SDS011;5805;51.542;7.230;2022-11-15T08:30:03;3.35;;;1.80;;
11496;SDS011;5805;51.542;7.230;2022-11-15T08:32:30;4.45;;;1.67;;
11496;SDS011;5805;51.542;7.230;2022-11-15T08:34:56;2.05;;;1.55;;
11496;SDS011;5805;51.542;7.230;2022-11-15T08:37:23;1.55;;;1.30;;
11496;SDS011;5805;51.542;7.230;2022-11-15T08:39:48;2.45;;;1.30;;
11496;SDS011;5805;51.542;7.230;2022-11-15T08:42:14;1.73;;;1.25;;
11496;SDS011;5805;51.542;7.230;2022-11-15T08:44:40;2.08;;;1.80;;
11496;SDS011;5805;51.542;7.230;2022-11-15T08:47:05;1.83;;;1.30;;
11496;SDS011;5805;51.542;7.230;2022-11-15T08:49:31;2.35;;;1.70;;
11496;SDS011;5805;51.542;7.230;2022-11-15T08:51:57;2.28;;;1.40;;
11496;SDS011;5805;51.542;7.230;2022-11-15T08:54:24;3.72;;;1.67;;
11496;SDS011;5805;51.542;7.230;2022-11-15T08:56:49;4.88;;;1.80;;
11496;SDS011;5805;51.542;7.230;2022-11-15T08:59:15;6.90;;;1.50;;
11496;SDS011;5805;51.542;7.230;2022-11-15T09:01:41;1.77;;;1.30;;
11496;SDS011;5805;51.542;7.230;2022-11-15T09:04:06;2.05;;;1.40;;
11496;SDS011;5805;51.542;7.230;2022-11-15T09:06:32;3.17;;;1.40;;
11496;SDS011;5805;51.542;7.230;2022-11-15T09:08:57;1.98;;;1.20;;
11496;SDS011;5805;51.542;7.230;2022-11-15T09:11:26;1.60;;;1.15;;
11496;SDS011;5805;51.542;7.230;2022-11-15T09:13:52;2.40;;;1.13;;
11496;SDS011;5805;51.542;7.230;2022-11-15T09:16:17;4.60;;;1.95;;
11496;SDS011;5805;51.542;7.230;2022-11-15T09:18:43;1.88;;;1.35;;
11496;SDS011;5805;51.542;7.230;2022-11-15T09:21:09;3.22;;;0.98;;
11496;SDS011;5805;51.542;7.230;2022-11-15T09:23:35;3.60;;;1.35;;
11496;SDS011;5805;51.542;7.230;2022-11-15T09:26:01;1.58;;;0.98;;
11496;SDS011;5805;51.542;7.230;2022-11-15T09:28:29;1.50;;;1.02;;
11496;SDS011;5805;51.542;7.230;2022-11-15T09:30:57;6.70;;;1.85;;
11496;SDS011;5805;51.542;7.230;2022-11-15T09:33:23;3.80;;;1.30;;
11496;SDS011;5805;51.542;7.230;2022-11-15T09:35:48;1.50;;;0.82;;
11496;SDS011;5805;51.542;7.230;2022-11-15T09:38:14;2.72;;;0.90;;
11496;SDS011;5805;51.542;7.230;2022-11-15T09:40:40;1.85;;;1.40;;
11496;SDS011;5805;51.542;7.230;2022-11-15T09:43:09;1.25;;;0.90;;
11496;SDS011;5805;51.542;7.230;2022-11-15T09:45:52;1.95;;;1.30;;
11496;SDS011;5805;51.542;7.230;2022-11-15T09:48:36;1.50;;;1.10;;
11496;SDS011;5805;51.542;7.230;2022-11-15T09:51:18;1.20;;;0.98;;
11496;SDS011;5805;51.542;7.230;2022-11-15T09:53:49;2.25;;;1.10;;
11496;SDS011;5805;51.542;7.230;2022-11-15T09:56:20;1.58;;;0.93;;
11496;SDS011;5805;51.542;7.230;2022-11-15T09:58:49;1.90;;;0.90;;
11496;SDS011;5805;51.542;7.230;2022-11-15T10:01:23;1.27;;;0.85;;
11496;SDS011;5805;51.542;7.230;2022-11-15T10:04:00;2.33;;;1.13;;
11496;SDS011;5805;51.542;7.230;2022-11-15T10:06:26;2.85;;;1.00;;
11496;SDS011;5805;51.542;7.230;2022-11-15T10:08:55;1.52;;;0.90;;
11496;SDS011;5805;51.542;7.230;2022-11-15T10:11:24;1.85;;;1.10;;
11496;SDS011;5805;51.542;7.230;2022-11-15T10:13:53;1.88;;;1.10;;
11496;SDS011;5805;51.542;7.230;2022-11-15T10:16:27;3.33;;;0.85;;
11496;SDS011;5805;51.542;7.230;2022-11-15T10:19:07;3.08;;;0.98;;
11496;SDS011;5805;51.542;7.230;2022-11-15T10:21:40;2.47;;;0.80;;
11496;SDS011;5805;51.542;7.230;2022-11-15T10:24:18;3.38;;;1.10;;
11496;SDS011;5805;51.542;7.230;2022-11-15T10:26:48;1.58;;;0.90;;
11496;SDS011;5805;51.542;7.230;2022-11-15T10:29:17;1.58;;;0.90;;
11496;SDS011;5805;51.542;7.230;2022-11-15T10:31:45;1.25;;;1.08;;
11496;SDS011;5805;51.542;7.230;2022-11-15T10:34:11;1.15;;;0.75;;
11496;SDS011;5805;51.542;7.230;2022-11-15T10:36:39;1.33;;;0.80;;
11496;SDS011;5805;51.542;7.230;2022-11-15T10:39:11;2.00;;;1.27;;
11496;SDS011;5805;51.542;7.230;2022-11-15T10:41:38;2.38;;;0.80;;
11496;SDS011;5805;51.542;7.230;2022-11-15T10:44:16;1.60;;;0.73;;
11496;SDS011;5805;51.542;7.230;2022-11-15T10:46:46;1.45;;;1.20;;
11496;SDS011;5805;51.542;7.230;2022-11-15T10:49:14;1.60;;;0.85;;
11496;SDS011;5805;51.542;7.230;2022-11-15T10:51:42;3.17;;;1.00;;
11496;SDS011;5805;51.542;7.230;2022-11-15T10:54:11;1.45;;;0.80;;
11496;SDS011;5805;51.542;7.230;2022-11-15T10:56:39;2.63;;;1.00;;
11496;SDS011;5805;51.542;7.230;2022-11-15T10:59:08;3.28;;;1.02;;
11496;SDS011;5805;51.542;7.230;2022-11-15T11:01:46;1.73;;;0.60;;
11496;SDS011;5805;51.542;7.230;2022-11-15T11:04:13;1.00;;;0.90;;
11496;SDS011;5805;51.542;7.230;2022-11-15T11:06:46;1.60;;;0.90;;
11496;SDS011;5805;51.542;7.230;2022-11-15T11:09:19;4.63;;;1.10;;
11496;SDS011;5805;51.542;7.230;2022-11-15T11:11:50;3.63;;;0.85;;
11496;SDS011;5805;51.542;7.230;2022-11-15T11:14:26;1.52;;;0.73;;
11496;SDS011;5805;51.542;7.230;2022-11-15T11:16:55;1.58;;;0.90;;
11496;SDS011;5805;51.542;7.230;2022-11-15T11:19:40;1.45;;;0.80;;
11496;SDS011;5805;51.542;7.230;2022-11-15T11:22:19;3.70;;;1.08;;
11496;SDS011;5805;51.542;7.230;2022-11-15T11:24:55;1.80;;;0.70;;
11496;SDS011;5805;51.542;7.230;2022-11-15T11:27:32;1.42;;;0.70;;
11496;SDS011;5805;51.542;7.230;2022-11-15T11:30:08;1.67;;;0.65;;
11496;SDS011;5805;51.542;7.230;2022-11-15T11:32:43;3.53;;;0.90;;
11496;SDS011;5805;51.542;7.230;2022-11-15T11:35:19;1.15;;;0.90;;
11496;SDS011;5805;51.542;7.230;2022-11-15T11:37:50;1.42;;;0.60;;
11496;SDS011;5805;51.542;7.230;2022-11-15T11:40:20;3.15;;;0.82;;
11496;SDS011;5805;51.542;7.230;2022-11-15T11:42:57;1.42;;;0.90;;
11496;SDS011;5805;51.542;7.230;2022-11-15T11:45:35;1.33;;;0.90;;
11496;SDS011;5805;51.542;7.230;2022-11-15T11:48:27;3.00;;;0.55;;
11496;SDS011;5805;51.542;7.230;2022-11-15T11:51:05;2.20;;;0.80;;
11496;SDS011;5805;51.542;7.230;2022-11-15T11:53:37;1.77;;;0.70;;
11496;SDS011;5805;51.542;7.230;2022-11-15T11:56:08;3.33;;;1.33;;
11496;SDS011;5805;51.542;7.230;2022-11-15T11:58:41;1.42;;;0.75;;
11496;SDS011;5805;51.542;7.230;2022-11-15T12:01:10;1.27;;;0.73;;
11496;SDS011;5805;51.542;7.230;2022-11-15T12:03:42;0.75;;;0.70;;
11496;SDS011;5805;51.542;7.230;2022-11-15T12:06:11;1.05;;;0.68;;
11496;SDS011;5805;51.542;7.230;2022-11-15T12:08:47;2.05;;;0.73;;
11496;SDS011;5805;51.542;7.230;2022-11-15T12:11:19;1.80;;;0.88;;
11496;SDS011;5805;51.542;7.230;2022-11-15T12:13:50;3.75;;;1.40;;
11496;SDS011;5805;51.542;7.230;2022-11-15T12:16:23;1.90;;;1.00;;
11496;SDS011;5805;51.542;7.230;2022-11-15T12:18:54;1.17;;;0.73;;
11496;SDS011;5805;51.542;7.230;2022-11-15T12:21:24;1.13;;;0.70;;
11496;SDS011;5805;51.542;7.230;2022-11-15T12:24:01;0.52;;;0.52;;
11496;SDS011;5805;51.542;7.230;2022-11-15T12:26:31;3.70;;;0.77;;
11496;SDS011;5805;51.542;7.230;2022-11-15T12:29:03;2.33;;;1.00;;
11496;SDS011;5805;51.542;7.230;2022-11-15T12:31:36;4.38;;;0.80;;
11496;SDS011;5805;51.542;7.230;2022-11-15T12:34:13;1.70;;;0.90;;
11496;SDS011;5805;51.542;7.230;2022-11-15T12:36:53;2.22;;;0.98;;
11496;SDS011;5805;51.542;7.230;2022-11-15T12:39:19;1.75;;;1.20;;
11496;SDS011;5805;51.542;7.230;2022-11-15T12:44:58;1.08;;;0.80;;
11496;SDS011;5805;51.542;7.230;2022-11-15T12:47:24;1.85;;;0.80;;
11496;SDS011;5805;51.542;7.230;2022-11-15T12:49:53;1.15;;;0.77;;
11496;SDS011;5805;51.542;7.230;2022-11-15T12:52:19;0.45;;;0.45;;
11496;SDS011;5805;51.542;7.230;2022-11-15T12:55:00;1.70;;;0.70;;
11496;SDS011;5805;51.542;7.230;2022-11-15T12:57:48;2.53;;;0.50;;
11496;SDS011;5805;51.542;7.230;2022-11-15T13:00:36;0.52;;;0.40;;
11496;SDS011;5805;51.542;7.230;2022-11-15T13:03:16;1.00;;;0.80;;
11496;SDS011;5805;51.542;7.230;2022-11-15T13:05:55;1.17;;;0.57;;
11496;SDS011;5805;51.542;7.230;2022-11-15T13:08:40;4.70;;;1.13;;
11496;SDS011;5805;51.542;7.230;2022-11-15T13:17:28;1.48;;;0.70;;
11496;SDS011;5805;51.542;7.230;2022-11-15T13:19:59;2.10;;;0.85;;
11496;SDS011;5805;51.542;7.230;2022-11-15T13:22:49;1.08;;;0.70;;
11496;SDS011;5805;51.542;7.230;2022-11-15T13:28:22;3.95;;;0.90;;
11496;SDS011;5805;51.542;7.230;2022-11-15T13:30:55;2.42;;;0.98;;
11496;SDS011;5805;51.542;7.230;2022-11-15T13:33:25;2.30;;;0.80;;
11496;SDS011;5805;51.542;7.230;2022-11-15T13:35:55;2.15;;;0.88;;
11496;SDS011;5805;51.542;7.230;2022-11-15T13:38:26;4.35;;;0.88;;
11496;SDS011;5805;51.542;7.230;2022-11-15T13:40:53;1.33;;;0.68;;
11496;SDS011;5805;51.542;7.230;2022-11-15T13:43:26;2.22;;;0.80;;
11496;SDS011;5805;51.542;7.230;2022-11-15T13:46:03;2.10;;;0.88;;
11496;SDS011;5805;51.542;7.230;2022-11-15T13:48:38;3.15;;;0.70;;
11496;SDS011;5805;51.542;7.230;2022-11-15T13:51:04;6.47;;;0.95;;
11496;SDS011;5805;51.542;7.230;2022-11-15T13:53:33;1.05;;;0.70;;
11496;SDS011;5805;51.542;7.230;2022-11-15T13:56:03;0.80;;;0.60;;
11496;SDS011;5805;51.542;7.230;2022-11-15T13:58:29;1.92;;;0.98;;
11496;SDS011;5805;51.542;7.230;2022-11-15T14:00:59;2.50;;;0.70;;
11496;SDS011;5805;51.542;7.230;2022-11-15T14:03:26;3.03;;;0.77;;
11496;SDS011;5805;51.542;7.230;2022-11-15T14:06:03;4.60;;;0.90;;
11496;SDS011;5805;51.542;7.230;2022-11-15T14:08:31;3.35;;;0.75;;
11496;SDS011;5805;51.542;7.230;2022-11-15T14:11:12;1.63;;;0.60;;
11496;SDS011;5805;51.542;7.230;2022-11-15T14:13:40;2.38;;;0.68;;
11496;SDS011;5805;51.542;7.230;2022-11-15T14:16:13;0.90;;;0.80;;
11496;SDS011;5805;51.542;7.230;2022-11-15T14:18:42;2.35;;;0.90;;
11496;SDS011;5805;51.542;7.230;2022-11-15T14:21:11;4.30;;;1.00;;
11496;SDS011;5805;51.542;7.230;2022-11-15T14:23:37;3.38;;;0.70;;
11496;SDS011;5805;51.542;7.230;2022-11-15T14:26:03;1.70;;;0.77;;
11496;SDS011;5805;51.542;7.230;2022-11-15T14:28:29;3.05;;;0.82;;
11496;SDS011;5805;51.542;7.230;2022-11-15T14:30:56;1.88;;;0.60;;
11496;SDS011;5805;51.542;7.230;2022-11-15T14:33:23;3.95;;;1.27;;
11496;SDS011;5805;51.542;7.230;2022-11-15T14:35:52;4.38;;;0.85;;
11496;SDS011;5805;51.542;7.230;2022-11-15T14:38:19;1.58;;;0.80;;
11496;SDS011;5805;51.542;7.230;2022-11-15T14:40:44;2.53;;;1.05;;
11496;SDS011;5805;51.542;7.230;2022-11-15T14:43:11;3.83;;;0.90;;
11496;SDS011;5805;51.542;7.230;2022-11-15T14:45:37;4.35;;;1.05;;
11496;SDS011;5805;51.542;7.230;2022-11-15T14:48:03;2.60;;;0.95;;
11496;SDS011;5805;51.542;7.230;2022-11-15T14:50:29;0.95;;;0.80;;
11496;SDS011;5805;51.542;7.230;2022-11-15T14:52:56;5.25;;;1.00;;
11496;SDS011;5805;51.542;7.230;2022-11-15T14:55:24;2.63;;;1.17;;
11496;SDS011;5805;51.542;7.230;2022-11-15T14:57:51;1.75;;;1.27;;
11496;SDS011;5805;51.542;7.230;2022-11-15T15:00:16;4.22;;;1.30;;
11496;SDS011;5805;51.542;7.230;2022-11-15T15:02:43;1.63;;;1.10;;
11496;SDS011;5805;51.542;7.230;2022-11-15T15:05:13;3.88;;;1.20;;
11496;SDS011;5805;51.542;7.230;2022-11-15T15:07:40;2.05;;;0.90;;
11496;SDS011;5805;51.542;7.230;2022-11-15T15:10:06;1.58;;;1.27;;
11496;SDS011;5805;51.542;7.230;2022-11-15T15:12:33;2.95;;;1.60;;
11496;SDS011;5805;51.542;7.230;2022-11-15T15:14:59;1.55;;;1.33;;
11496;SDS011;5805;51.542;7.230;2022-11-15T15:17:24;1.63;;;1.20;;
11496;SDS011;5805;51.542;7.230;2022-11-15T15:19:50;2.53;;;1.52;;
11496;SDS011;5805;51.542;7.230;2022-11-15T15:22:16;3.97;;;1.35;;